Terminal Aerodrome Forecast
Issued by NWS

Home | Current Version | Previous Version | Text Only | Print | Product List | Glossary On
Versions: 1 2 3 4 5 6 7 8 9 10 11 12 13
000
FTUS46 KPDT 211100
TAFRDM
TAF
KRDM 211127Z 2112/2212 VRB04KT P6SM FEW250
     FM211900 31009KT P6SM SCT250
     FM212200 32013G23KT P6SM SCT060 SCT200
     FM220000 32018G26KT P6SM FEW035 SCT060 BKN200
     FM220200 32012KT P6SM BKN035 BKN050
      TEMPO 2202/2206 BKN030 OVC040=

USA.gov is the U.S. government's official web portal to all federal, state and local government web resources and services.